Time;durP1;ratioP1;P1;durP2;ratioP2;P2;SDS_P1;SDS_P2;PMS_P1;PMS_P2;Temp;Humidity;BMP_temperature;BMP_pressure;BME280_temperature;BME280_humidity;BME280_pressure;Samples;Min_cycle;Max_cycle;Signal;HPM_P1;HPM_P2
2024/02/03 00:02:08;;;;;;;;;;;;;;;-144.99;100.00;52527.59;5085022;28;19924;-64
2024/02/03 00:04:36;;;;;;;;;;;;;;;-144.99;100.00;52492.94;5084670;28;20374;-64
2024/02/03 00:07:03;;;;;;;;;;;;;;;-144.99;100.00;52505.16;5086348;28;20329;-63
2024/02/03 00:09:29;;;;;;;;;;;;;;;-144.99;100.00;52458.28;5085400;28;19928;-64
2024/02/03 00:11:56;;;;;;;;;;;;;;;-144.99;100.00;52505.16;5085848;28;19928;-64
2024/02/03 00:14:23;;;;;;;;;;;;;;;-144.99;100.00;52505.16;5086821;28;20024;-63
2024/02/03 00:16:51;;;;;;;;;;;;;;;-144.99;100.00;52525.56;5085754;28;20230;-64
2024/02/03 00:19:17;;;;;;;;;;;;;;;-144.99;100.00;52554.09;5089686;28;19928;-64
2024/02/03 00:21:44;;;;;;;;;;;;;;;-144.99;100.00;52517.41;5086377;28;20233;-64
2024/02/03 00:24:11;;;;;;;;;;;;;;;-144.99;100.00;52501.09;5086761;28;19932;-64
2024/02/03 00:26:37;;;;;;;;;;;;;;;-144.99;100.00;52525.56;5090854;28;19943;-64
2024/02/03 00:29:04;;;;;;;;;;;;;;;-144.99;100.00;52492.94;5089544;28;20275;-65
2024/02/03 00:31:31;;;;;;;;;;;;;;;-144.99;100.00;52517.41;5085567;28;19934;-65
2024/02/03 00:33:59;;;;;;;;;;;;;;;-144.99;100.00;52492.94;5092119;28;19935;-64
2024/02/03 00:36:25;;;;;;;;;;;;;;;-144.99;100.00;52492.94;5085876;28;19932;-65
2024/02/03 00:38:52;;;;;;;;;;;;;;;-144.99;100.00;52566.31;5090419;28;19938;-64
2024/02/03 00:41:19;;;;;;;;;;;;;;;-144.99;100.00;52509.25;5088091;28;20312;-64
2024/02/03 00:43:46;;;;;;;;;;;;;;;-144.99;100.00;52517.41;5086283;28;19928;-64
2024/02/03 00:46:12;;;;;;;;;;;;;;;-144.99;100.00;52503.13;5090777;28;20478;-64
2024/02/03 00:48:39;;;;;;;;;;;;;;;-144.99;100.00;52492.94;5087527;28;19924;-64
2024/02/03 00:51:09;;;;;;;;;;;;;;;-144.99;100.00;52515.34;5085245;28;19936;-66
2024/02/03 00:53:36;;;;;;;;;;;;;;;-144.99;100.00;52503.13;5090553;28;19928;-65
2024/02/03 00:56:03;;;;;;;;;;;;;;;-144.99;100.00;52501.09;5090694;28;19927;-63
2024/02/03 00:58:29;;;;;;;;;;;;;;;-144.99;100.00;52513.31;5088900;28;19924;-63
2024/02/03 01:00:56;;;;;;;;;;;;;;;-144.99;100.00;52497.00;5089811;28;20294;-66
2024/02/03 01:03:22;;;;;;;;;;;;;;;-144.99;100.00;52513.31;5084769;28;19928;-65
2024/02/03 01:05:49;;;;;;;;;;;;;;;-144.99;100.00;52494.97;5085549;28;20306;-62
2024/02/03 01:08:18;;;;;;;;;;;;;;;-144.99;100.00;52480.72;5085738;28;19985;-62
2024/02/03 01:10:44;;;;;;;;;;;;;;;-144.99;100.00;52511.28;5085545;28;20009;-69
2024/02/03 01:13:12;;;;;;;;;;;;;;;-144.99;100.00;52505.16;5085445;28;19978;-68
2024/02/03 01:15:38;;;;;;;;;;;;;;;-144.99;100.00;52492.94;5084754;28;20160;-66
2024/02/03 01:18:05;;;;;;;;;;;;;;;-144.99;100.00;52497.00;5084794;28;19932;-67
2024/02/03 01:20:32;;;;;;;;;;;;;;;-144.99;100.00;52499.06;5082779;28;19998;-74
2024/02/03 01:22:59;;;;;;;;;;;;;;;-144.99;100.00;52537.78;5105008;28;20015;-71
2024/02/03 01:25:27;;;;;;;;;;;;;;;-144.99;100.00;52554.09;5105246;28;20216;-69
2024/02/03 01:27:53;;;;;;;;;;;;;;;-144.99;100.00;52527.59;5104792;28;19924;-70
2024/02/03 01:30:20;;;;;;;;;;;;;;;-144.99;100.00;52492.94;5100170;28;20396;-70
2024/02/03 01:32:47;;;;;;;;;;;;;;;-144.99;100.00;52478.66;5098286;28;19928;-70
2024/02/03 01:35:14;;;;;;;;;;;;;;;-144.99;100.00;52499.06;5104602;28;19924;-71
2024/02/03 01:37:40;;;;;;;;;;;;;;;-144.99;100.00;52488.84;5095259;28;19932;-70
2024/02/03 01:40:08;;;;;;;;;;;;;;;-144.99;100.00;52511.28;5098455;28;20307;-71
2024/02/03 01:42:35;;;;;;;;;;;;;;;-144.99;100.00;52484.78;5096718;28;19937;-71
2024/02/03 01:45:02;;;;;;;;;;;;;;;-144.99;100.00;52513.31;5101449;28;20310;-70
2024/02/03 01:47:28;;;;;;;;;;;;;;;-144.99;100.00;52505.16;5089206;28;19935;-69
2024/02/03 01:49:55;;;;;;;;;;;;;;;-144.99;100.00;52497.00;5096499;28;19928;-71
2024/02/03 01:52:23;;;;;;;;;;;;;;;-144.99;100.00;52468.47;5105044;28;20309;-69
2024/02/03 01:54:50;;;;;;;;;;;;;;;-144.99;100.00;52499.06;5092405;28;19928;-65
2024/02/03 01:57:20;;;;;;;;;;;;;;;-144.99;100.00;52501.09;5091379;28;20258;-65
2024/02/03 01:59:47;;;;;;;;;;;;;;;-144.99;100.00;52492.94;5088919;28;19928;-64
2024/02/03 02:02:13;;;;;;;;;;;;;;;-144.99;100.00;52488.84;5086813;28;20028;-66
2024/02/03 02:04:40;;;;;;;;;;;;;;;-144.99;100.00;52484.78;5104970;28;19928;-67
2024/02/03 02:07:06;;;;;;;;;;;;;;;-144.99;100.00;52505.16;5098814;28;20443;-68
2024/02/03 02:09:33;;;;;;;;;;;;;;;-144.99;100.00;52492.94;5096808;28;19928;-66
2024/02/03 02:11:59;;;;;;;;;;;;;;;-144.99;100.00;52521.47;5097289;28;19925;-68
2024/02/03 02:14:26;;;;;;;;;;;;;;;-144.99;100.00;52468.47;5098995;28;19928;-66
2024/02/03 02:16:57;;;;;;;;;;;;;;;-144.99;100.00;52505.16;4748390;28;10000224;-67
2024/02/03 02:19:23;;;;;;;;;;;;;;;-144.99;100.00;52490.91;5093446;28;20317;-67
2024/02/03 02:21:51;;;;;;;;;;;;;;;-144.99;100.00;52478.66;5095479;28;19950;-67
2024/02/03 02:24:18;;;;;;;;;;;;;;;-144.99;100.00;52476.63;5095665;28;19927;-68
2024/02/03 02:26:44;;;;;;;;;;;;;;;-144.99;100.00;52448.09;5098279;28;19977;-68
2024/02/03 02:29:11;;;;;;;;;;;;;;;-144.99;100.00;52501.09;5098862;28;19977;-68
2024/02/03 02:31:38;;;;;;;;;;;;;;;-144.99;100.00;52492.94;5094650;28;19985;-68
2024/02/03 02:34:04;;;;;;;;;;;;;;;-144.99;100.00;52488.84;5093753;28;19932;-67
2024/02/03 02:36:31;;;;;;;;;;;;;;;-144.99;100.00;52503.13;5105510;28;19924;-67
2024/02/03 02:38:59;;;;;;;;;;;;;;;-144.99;100.00;52462.34;5098666;28;20052;-68
2024/02/03 02:41:25;;;;;;;;;;;;;;;-144.99;100.00;52460.31;5089231;28;19977;-67
2024/02/03 02:43:52;;;;;;;;;;;;;;;-144.99;100.00;52517.41;5103957;28;19931;-68
2024/02/03 02:46:25;;;;;;;;;;;;;;;-144.99;100.00;52488.84;5098261;28;19931;-70
2024/02/03 02:48:52;;;;;;;;;;;;;;;-144.99;100.00;52458.28;5082089;28;20377;-68
2024/02/03 02:51:18;;;;;;;;;;;;;;;-144.99;100.00;52474.59;5094028;28;19931;-68
2024/02/03 02:53:45;;;;;;;;;;;;;;;-144.99;100.00;52464.41;5095895;28;19929;-68
2024/02/03 02:56:13;;;;;;;;;;;;;;;-144.99;100.00;52497.00;5097955;28;19924;-68
2024/02/03 02:58:40;;;;;;;;;;;;;;;-144.99;100.00;52484.78;5096029;28;19931;-69
2024/02/03 03:01:07;;;;;;;;;;;;;;;-144.99;100.00;52488.84;5094053;28;19932;-68
2024/02/03 03:03:33;;;;;;;;;;;;;;;-144.99;100.00;52529.63;5102053;28;20413;-67
2024/02/03 03:06:00;;;;;;;;;;;;;;;-144.99;100.00;52497.00;5098828;28;20324;-70
2024/02/03 03:08:26;;;;;;;;;;;;;;;-144.99;100.00;52456.25;5100552;28;20023;-67
2024/02/03 03:10:53;;;;;;;;;;;;;;;-144.99;100.00;52513.31;5094171;28;19924;-67
2024/02/03 03:13:21;;;;;;;;;;;;;;;-144.99;100.00;52484.78;5097410;28;20259;-67
2024/02/03 03:15:48;;;;;;;;;;;;;;;-144.99;100.00;52517.41;5092459;28;19981;-67
2024/02/03 03:18:14;;;;;;;;;;;;;;;-144.99;100.00;52476.63;5093894;28;19924;-65
2024/02/03 03:20:43;;;;;;;;;;;;;;;-144.99;100.00;52452.16;5090131;28;20270;-64
2024/02/03 03:23:09;;;;;;;;;;;;;;;-144.99;100.00;52456.25;5090200;28;20055;-65
2024/02/03 03:25:37;;;;;;;;;;;;;;;-144.99;100.00;52464.41;5093359;28;19928;-64
2024/02/03 03:28:04;;;;;;;;;;;;;;;-144.99;100.00;52497.00;5096815;28;19931;-64
2024/02/03 03:30:32;;;;;;;;;;;;;;;-144.99;100.00;52484.78;5088632;28;19970;-65
2024/02/03 03:32:58;;;;;;;;;;;;;;;-144.99;100.00;52501.09;5089940;28;20213;-64
2024/02/03 03:35:25;;;;;;;;;;;;;;;-144.99;100.00;52513.31;5098294;28;20029;-65
2024/02/03 03:37:51;;;;;;;;;;;;;;;-144.99;100.00;52529.63;5090209;28;19924;-64
2024/02/03 03:40:18;;;;;;;;;;;;;;;-144.99;100.00;52486.81;5089284;28;19928;-64
2024/02/03 03:42:47;;;;;;;;;;;;;;;-144.99;100.00;52509.25;5099299;28;19935;-69
2024/02/03 03:45:14;;;;;;;;;;;;;;;-144.99;100.00;52521.47;5091068;28;20397;-64
2024/02/03 03:47:41;;;;;;;;;;;;;;;-144.99;100.00;52550.00;5090191;28;19978;-64
2024/02/03 03:50:08;;;;;;;;;;;;;;;-144.99;100.00;52501.09;5090041;28;20003;-64
2024/02/03 03:52:35;;;;;;;;;;;;;;;-144.99;100.00;52509.25;5098795;28;19924;-64
2024/02/03 03:55:01;;;;;;;;;;;;;;;-144.99;100.00;52494.97;5101717;28;19963;-76
2024/02/03 03:57:28;;;;;;;;;;;;;;;-144.99;100.00;52494.97;5091911;28;19985;-77
2024/02/03 03:59:54;;;;;;;;;;;;;;;-144.99;100.00;52497.00;5110741;28;19947;-72
2024/02/03 04:02:21;;;;;;;;;;;;;;;-144.99;100.00;52537.78;5095423;28;19927;-70
2024/02/03 04:04:49;;;;;;;;;;;;;;;-144.99;100.00;52480.72;5107795;28;20027;-68
2024/02/03 04:07:15;;;;;;;;;;;;;;;-144.99;100.00;52507.19;5094111;28;19991;-67
2024/02/03 04:09:47;;;;;;;;;;;;;;;-144.99;100.00;52521.47;5096669;28;20374;-67
2024/02/03 04:12:14;;;;;;;;;;;;;;;-144.99;100.00;52517.41;5102585;28;19931;-67
2024/02/03 04:14:42;;;;;;;;;;;;;;;-144.99;100.00;52529.63;5093045;28;20398;-67
2024/02/03 04:17:08;;;;;;;;;;;;;;;-144.99;100.00;52529.63;5092425;28;19981;-67
2024/02/03 04:19:35;;;;;;;;;;;;;;;-144.99;100.00;52501.09;5093922;28;19931;-69
2024/02/03 04:22:03;;;;;;;;;;;;;;;-144.99;100.00;52501.09;5094369;28;20463;-68
2024/02/03 04:24:29;;;;;;;;;;;;;;;-144.99;100.00;52488.84;5094166;28;20141;-68
2024/02/03 04:26:56;;;;;;;;;;;;;;;-144.99;100.00;52501.09;5088557;28;20297;-68
2024/02/03 04:29:22;;;;;;;;;;;;;;;-144.99;100.00;52527.59;5091747;28;20032;-73
2024/02/03 04:31:49;;;;;;;;;;;;;;;-144.99;100.00;52521.47;5096451;28;20301;-73
2024/02/03 04:34:17;;;;;;;;;;;;;;;-144.99;100.00;52513.31;5096108;28;20369;-74
2024/02/03 04:36:44;;;;;;;;;;;;;;;-144.99;100.00;52488.84;5094808;28;20054;-73
2024/02/03 04:39:12;;;;;;;;;;;;;;;-144.99;100.00;52501.09;5092603;28;20019;-73
2024/02/03 04:41:38;;;;;;;;;;;;;;;-144.99;100.00;52505.16;5093427;28;19966;-73
2024/02/03 04:44:05;;;;;;;;;;;;;;;-144.99;100.00;52476.63;5103060;28;20447;-73
2024/02/03 04:46:31;;;;;;;;;;;;;;;-144.99;100.00;52521.47;5089645;28;19924;-72
2024/02/03 04:48:58;;;;;;;;;;;;;;;-144.99;100.00;52509.25;5093586;28;19951;-72
2024/02/03 04:51:25;;;;;;;;;;;;;;;-144.99;100.00;52484.78;5090149;28;20040;-72
2024/02/03 04:53:51;;;;;;;;;;;;;;;-144.99;100.00;52464.41;5082683;28;20206;-72
2024/02/03 04:56:19;;;;;;;;;;;;;;;-144.99;100.00;52513.31;5094960;28;19924;-69
2024/02/03 04:58:45;;;;;;;;;;;;;;;-144.99;100.00;52505.16;5098033;28;20391;-70
2024/02/03 05:01:12;;;;;;;;;;;;;;;-144.99;100.00;52505.16;5088098;28;19932;-69
2024/02/03 05:03:38;;;;;;;;;;;;;;;-144.99;100.00;52521.47;5092422;28;19928;-68
2024/02/03 05:06:07;;;;;;;;;;;;;;;-144.99;100.00;52501.09;5087714;28;21473;-68
2024/02/03 05:08:35;;;;;;;;;;;;;;;-144.99;100.00;52517.41;5093406;28;20369;-74
2024/02/03 05:11:01;;;;;;;;;;;;;;;-144.99;100.00;52501.09;5096399;28;20137;-74
2024/02/03 05:13:29;;;;;;;;;;;;;;;-144.99;100.00;52513.31;5102105;28;19964;-75
2024/02/03 05:15:56;;;;;;;;;;;;;;;-144.99;100.00;52497.00;5091649;28;19977;-75
2024/02/03 05:18:23;;;;;;;;;;;;;;;-144.99;100.00;52529.63;5104096;28;19971;-74
2024/02/03 05:20:49;;;;;;;;;;;;;;;-144.99;100.00;52517.41;5091267;28;20035;-75
2024/02/03 05:23:16;;;;;;;;;;;;;;;-144.99;100.00;52507.19;5099853;28;20362;-74
2024/02/03 05:25:42;;;;;;;;;;;;;;;-144.99;100.00;52521.47;5099892;28;19952;-74
2024/02/03 05:28:09;;;;;;;;;;;;;;;-144.99;100.00;52513.31;5095001;28;20409;-75
2024/02/03 05:30:37;;;;;;;;;;;;;;;-144.99;100.00;52499.06;5097341;28;19966;-74
2024/02/03 05:33:04;;;;;;;;;;;;;;;-144.99;100.00;52476.63;5098178;28;19930;-75
2024/02/03 05:35:30;;;;;;;;;;;;;;;-144.99;100.00;52554.09;5101316;28;19969;-74
2024/02/03 05:37:57;;;;;;;;;;;;;;;-144.99;100.00;52517.41;5099121;28;19923;-73
2024/02/03 05:40:23;;;;;;;;;;;;;;;-144.99;100.00;52517.41;5090201;28;19936;-74
2024/02/03 05:42:50;;;;;;;;;;;;;;;-144.99;100.00;52501.09;5092594;28;19946;-76
2024/02/03 05:45:17;;;;;;;;;;;;;;;-144.99;100.00;52501.09;5090264;28;20384;-66
2024/02/03 05:47:45;;;;;;;;;;;;;;;-144.99;100.00;52562.25;5094262;28;20027;-66
2024/02/03 05:50:11;;;;;;;;;;;;;;;-144.99;100.00;52517.41;5091711;28;20352;-69
2024/02/03 05:52:38;;;;;;;;;;;;;;;-144.99;100.00;52509.25;5088005;28;19976;-70
2024/02/03 05:55:05;;;;;;;;;;;;;;;-144.99;100.00;52552.03;5091843;28;19963;-69
2024/02/03 05:57:31;;;;;;;;;;;;;;;-144.99;100.00;52533.69;5088754;28;19970;-69
2024/02/03 05:59:58;;;;;;;;;;;;;;;-144.99;100.00;52501.09;5096694;28;20051;-69
2024/02/03 06:02:24;;;;;;;;;;;;;;;-144.99;100.00;52497.00;5094109;28;19981;-70
2024/02/03 06:04:52;;;;;;;;;;;;;;;-144.99;100.00;52476.63;5088420;28;19928;-69
2024/02/03 06:07:18;;;;;;;;;;;;;;;-144.99;100.00;52470.50;5092430;28;19924;-70
2024/02/03 06:09:45;;;;;;;;;;;;;;;-144.99;100.00;52521.47;5098102;28;20330;-70
2024/02/03 06:12:11;;;;;;;;;;;;;;;-144.99;100.00;52480.72;5091420;28;20052;-70
2024/02/03 06:14:40;;;;;;;;;;;;;;;-144.99;100.00;52521.47;5091409;28;19974;-70
2024/02/03 06:17:07;;;;;;;;;;;;;;;-144.99;100.00;52492.94;5099532;28;20011;-69
2024/02/03 06:19:33;;;;;;;;;;;;;;;-144.99;100.00;52525.56;5094783;28;20185;-66
2024/02/03 06:22:01;;;;;;;;;;;;;;;-144.99;100.00;52509.25;5098054;28;20011;-66
2024/02/03 06:24:27;;;;;;;;;;;;;;;-144.99;100.00;52492.94;5096659;28;19932;-66
2024/02/03 06:26:54;;;;;;;;;;;;;;;-144.99;100.00;52472.56;5096541;28;19928;-66
2024/02/03 06:29:20;;;;;;;;;;;;;;;-144.99;100.00;52501.09;5091882;28;19977;-67
2024/02/03 06:31:47;;;;;;;;;;;;;;;-144.99;100.00;52497.00;5091134;28;20023;-66
2024/02/03 06:34:13;;;;;;;;;;;;;;;-144.99;100.00;52513.31;5091326;28;19932;-65
2024/02/03 06:36:40;;;;;;;;;;;;;;;-144.99;100.00;52501.09;5091172;28;20008;-65
2024/02/03 06:39:09;;;;;;;;;;;;;;;-144.99;100.00;52472.56;5091082;28;20390;-66
2024/02/03 06:41:36;;;;;;;;;;;;;;;-144.99;100.00;52492.94;5090703;28;19980;-67
2024/02/03 06:44:02;;;;;;;;;;;;;;;-144.99;100.00;52513.31;5110175;28;19963;-67
2024/02/03 06:46:29;;;;;;;;;;;;;;;-144.99;100.00;52464.41;5093717;28;19924;-69
2024/02/03 06:48:55;;;;;;;;;;;;;;;-144.99;100.00;52456.25;5091711;28;19928;-66
2024/02/03 06:51:22;;;;;;;;;;;;;;;-144.99;100.00;52480.72;5090527;28;19928;-66
2024/02/03 06:53:48;;;;;;;;;;;;;;;-144.99;100.00;52521.47;5088287;28;20274;-66
2024/02/03 06:56:16;;;;;;;;;;;;;;;-144.99;100.00;52494.97;5090747;28;19971;-65
2024/02/03 06:58:42;;;;;;;;;;;;;;;-144.99;100.00;52531.66;5090965;28;19974;-65
2024/02/03 07:01:09;;;;;;;;;;;;;;;-144.99;100.00;52501.09;5095763;28;20025;-66
2024/02/03 07:03:35;;;;;;;;;;;;;;;-144.99;100.00;52476.63;5090753;28;20348;-68
2024/02/03 07:06:02;;;;;;;;;;;;;;;-144.99;100.00;52480.72;5091730;28;20024;-68
2024/02/03 07:08:29;;;;;;;;;;;;;;;-144.99;100.00;52511.28;5091176;28;20031;-68
2024/02/03 07:10:55;;;;;;;;;;;;;;;-144.99;100.00;52501.09;5090609;28;19936;-67
2024/02/03 07:13:25;;;;;;;;;;;;;;;-144.99;100.00;52468.47;5090684;28;20294;-69
2024/02/03 07:15:51;;;;;;;;;;;;;;;-144.99;100.00;52486.81;5090076;28;19928;-68
2024/02/03 07:18:18;;;;;;;;;;;;;;;-144.99;100.00;52509.25;5089718;28;19924;-69
2024/02/03 07:20:44;;;;;;;;;;;;;;;-144.99;100.00;52537.78;5096584;28;20069;-69
2024/02/03 07:23:11;;;;;;;;;;;;;;;-144.99;100.00;52470.50;5103553;28;20479;-68
2024/02/03 07:25:37;;;;;;;;;;;;;;;-144.99;100.00;52525.56;5099488;28;20372;-67
2024/02/03 07:28:04;;;;;;;;;;;;;;;-144.99;100.00;52505.16;5098132;28;19924;-68
2024/02/03 07:30:32;;;;;;;;;;;;;;;-144.99;100.00;52488.84;5105486;28;20345;-68
2024/02/03 07:33:01;;;;;;;;;;;;;;;-144.99;100.00;52509.25;5101889;28;19967;-71
2024/02/03 07:35:29;;;;;;;;;;;;;;;-144.99;100.00;52525.56;5109185;28;20385;-73
2024/02/03 07:37:56;;;;;;;;;;;;;;;-144.99;100.00;52476.63;5094683;28;19932;-73
2024/02/03 07:40:22;;;;;;;;;;;;;;;-144.99;100.00;52529.63;5097389;28;19993;-72
2024/02/03 07:42:49;;;;;;;;;;;;;;;-144.99;100.00;52525.56;5094513;28;19928;-72
2024/02/03 07:45:15;;;;;;;;;;;;;;;-144.99;100.00;52497.00;5093750;28;20332;-73
2024/02/03 07:47:43;;;;;;;;;;;;;;;-144.99;100.00;52517.41;5100365;28;19963;-73
2024/02/03 07:50:10;;;;;;;;;;;;;;;-144.99;100.00;52509.25;5097004;28;19928;-72
2024/02/03 07:52:36;;;;;;;;;;;;;;;-144.99;100.00;52529.63;5091646;28;19924;-71
2024/02/03 07:55:03;;;;;;;;;;;;;;;-144.99;100.00;52533.69;5095884;28;19982;-70
2024/02/03 07:57:29;;;;;;;;;;;;;;;-144.99;100.00;52541.84;5092774;28;19940;-71
2024/02/03 07:59:56;;;;;;;;;;;;;;;-144.99;100.00;52507.19;5099143;28;19981;-71
2024/02/03 08:02:23;;;;;;;;;;;;;;;-144.99;100.00;52533.69;5090957;28;20014;-71
2024/02/03 08:04:51;;;;;;;;;;;;;;;-144.99;100.00;52541.84;5101671;28;20005;-65
2024/02/03 08:07:17;;;;;;;;;;;;;;;-144.99;100.00;52517.41;5093471;28;20382;-70
2024/02/03 08:09:43;;;;;;;;;;;;;;;-144.99;100.00;52517.41;5102457;28;20331;-70
2024/02/03 08:12:10;;;;;;;;;;;;;;;-144.99;100.00;52529.63;5095341;28;20012;-70
2024/02/03 08:14:36;;;;;;;;;;;;;;;-144.99;100.00;52513.31;5098386;28;19924;-70
2024/02/03 08:17:03;;;;;;;;;;;;;;;-144.99;100.00;52525.56;5105228;28;19924;-70
2024/02/03 08:19:29;;;;;;;;;;;;;;;-144.99;100.00;52497.00;5093802;28;20323;-71
2024/02/03 08:21:57;;;;;;;;;;;;;;;-144.99;100.00;52492.94;5091520;28;20081;-71
2024/02/03 08:24:23;;;;;;;;;;;;;;;-144.99;100.00;52452.16;5096574;28;19977;-73
2024/02/03 08:26:50;;;;;;;;;;;;;;;-144.99;100.00;52505.16;5102944;28;19924;-71
2024/02/03 08:29:17;;;;;;;;;;;;;;;-144.99;100.00;52486.81;5095917;28;19979;-71
2024/02/03 08:31:43;;;;;;;;;;;;;;;-144.99;100.00;52482.75;5095859;28;20237;-71
2024/02/03 08:34:10;;;;;;;;;;;;;;;-144.99;100.00;52505.16;5099250;28;20546;-64
2024/02/03 08:36:36;;;;;;;;;;;;;;;-144.99;100.00;52480.72;5096452;28;19970;-68
2024/02/03 08:39:04;;;;;;;;;;;;;;;-144.99;100.00;52503.13;5105488;28;19931;-68
2024/02/03 08:41:31;;;;;;;;;;;;;;;-144.99;100.00;52488.84;5089873;28;19960;-68
2024/02/03 08:43:57;;;;;;;;;;;;;;;-144.99;100.00;52472.56;5090173;28;19928;-67
2024/02/03 08:46:24;;;;;;;;;;;;;;;-144.99;100.00;52537.78;5089802;28;19924;-69
2024/02/03 08:48:50;;;;;;;;;;;;;;;-144.99;100.00;52501.09;5090226;28;20032;-69
2024/02/03 08:51:17;;;;;;;;;;;;;;;-144.99;100.00;52476.63;5089672;28;19947;-73
2024/02/03 08:53:43;;;;;;;;;;;;;;;-144.99;100.00;52531.66;5085204;28;19928;-72
2024/02/03 08:56:13;;;;;;;;;;;;;;;-144.99;100.00;52505.16;5091971;28;19931;-73
2024/02/03 08:58:39;;;;;;;;;;;;;;;-144.99;100.00;52517.41;5095657;28;20131;-73
2024/02/03 09:01:06;;;;;;;;;;;;;;;-144.99;100.00;52484.78;5088481;28;19936;-73
2024/02/03 09:03:32;;;;;;;;;;;;;;;-144.99;100.00;52509.25;5089651;28;19997;-73
2024/02/03 09:05:59;;;;;;;;;;;;;;;-144.99;100.00;52513.31;5094089;28;19924;-73
2024/02/03 09:08:25;;;;;;;;;;;;;;;-144.99;100.00;52545.94;5093023;28;19934;-74
2024/02/03 09:10:52;;;;;;;;;;;;;;;-144.99;100.00;52488.84;5088432;28;19924;-74
2024/02/03 09:13:20;;;;;;;;;;;;;;;-144.99;100.00;52492.94;5100822;28;19971;-74
2024/02/03 09:15:46;;;;;;;;;;;;;;;-144.99;100.00;52480.72;5108515;28;19927;-74
2024/02/03 09:18:13;;;;;;;;;;;;;;;-144.99;100.00;52486.81;5106601;28;19924;-73
2024/02/03 09:20:39;;;;;;;;;;;;;;;-144.99;100.00;52527.59;5111975;28;20236;-73
2024/02/03 09:23:06;;;;;;;;;;;;;;;-144.99;100.00;52494.97;5108621;28;20135;-72
2024/02/03 09:25:32;;;;;;;;;;;;;;;-144.99;100.00;52509.25;5108338;28;20230;-73
2024/02/03 09:27:59;;;;;;;;;;;;;;;-144.99;100.00;52517.41;5106196;28;19932;-72
2024/02/03 09:30:27;;;;;;;;;;;;;;;-144.99;100.00;52509.25;5101453;28;19928;-74
2024/02/03 09:32:54;;;;;;;;;;;;;;;-144.99;100.00;52521.47;5115472;22;19928;-73
2024/02/03 09:35:20;;;;;;;;;;;;;;;-144.99;100.00;52488.84;5041869;28;19931;-76
2024/02/03 09:37:47;;;;;;;;;;;;;;;-144.99;100.00;52497.00;5034655;28;19969;-76
2024/02/03 09:40:17;;;;;;;;;;;;;;;-144.99;100.00;52460.31;5034678;28;19933;-76
2024/02/03 09:42:43;;;;;;;;;;;;;;;-144.99;100.00;52484.78;5051120;28;19970;-76
2024/02/03 09:45:10;;;;;;;;;;;;;;;-144.99;100.00;52513.31;5060893;28;20412;-76
2024/02/03 09:47:37;;;;;;;;;;;;;;;-144.99;100.00;52486.81;5053140;28;19972;-76
2024/02/03 09:50:05;;;;;;;;;;;;;;;-144.99;100.00;52531.66;5057208;28;20003;-75
2024/02/03 09:52:33;;;;;;;;;;;;;;;-144.99;100.00;52505.16;5061420;28;20011;-75
2024/02/03 09:54:59;;;;;;;;;;;;;;;-144.99;100.00;52497.00;5052709;28;20013;-76
2024/02/03 09:57:26;;;;;;;;;;;;;;;-144.99;100.00;52517.41;5063179;28;19967;-75
2024/02/03 09:59:53;;;;;;;;;;;;;;;-144.99;100.00;52505.16;5056079;28;19939;-76
2024/02/03 10:02:19;;;;;;;;;;;;;;;-144.99;100.00;52492.94;5052919;28;19936;-75
2024/02/03 10:04:49;;;;;;;;;;;;;;;-144.99;100.00;52533.69;5054036;28;20043;-75
2024/02/03 10:07:18;;;;;;;;;;;;;;;-144.99;100.00;52444.03;5050560;28;19932;-74
2024/02/03 10:09:45;;;;;;;;;;;;;;;-144.99;100.00;52525.56;5058446;28;19933;-76
2024/02/03 10:12:17;;;;;;;;;;;;;;;-144.99;100.00;52501.09;5056216;28;19935;-75
2024/02/03 10:14:43;;;;;;;;;;;;;;;-144.99;100.00;52521.47;5048344;28;20355;-75
2024/02/03 10:17:10;;;;;;;;;;;;;;;-144.99;100.00;52494.97;5066073;28;19970;-75
2024/02/03 10:19:37;;;;;;;;;;;;;;;-144.99;100.00;52492.94;5052856;28;19970;-75
2024/02/03 10:22:05;;;;;;;;;;;;;;;-144.99;100.00;52474.59;5053358;28;19970;-75
2024/02/03 10:24:31;;;;;;;;;;;;;;;-144.99;100.00;52499.06;5053142;28;20297;-74
2024/02/03 10:26:59;;;;;;;;;;;;;;;-144.99;100.00;52521.47;5058643;28;20319;-74
2024/02/03 10:29:25;;;;;;;;;;;;;;;-144.99;100.00;52470.50;5052528;28;19955;-74
2024/02/03 10:31:52;;;;;;;;;;;;;;;-144.99;100.00;52521.47;5052470;28;20337;-75
2024/02/03 10:34:19;;;;;;;;;;;;;;;-144.99;100.00;52468.47;5061300;28;20027;-75
2024/02/03 10:36:45;;;;;;;;;;;;;;;-144.99;100.00;52492.94;5052064;28;19972;-75
2024/02/03 10:39:14;;;;;;;;;;;;;;;-144.99;100.00;52474.59;5058657;28;19944;-75
2024/02/03 10:41:41;;;;;;;;;;;;;;;-144.99;100.00;52488.84;5055588;28;19929;-75
2024/02/03 10:44:08;;;;;;;;;;;;;;;-144.99;100.00;52492.94;5060904;28;20167;-76
2024/02/03 10:46:38;;;;;;;;;;;;;;;-144.99;100.00;52482.75;5051666;28;19975;-75
2024/02/03 10:49:06;;;;;;;;;;;;;;;-144.99;100.00;52505.16;5052247;28;20298;-75
2024/02/03 10:51:33;;;;;;;;;;;;;;;-144.99;100.00;52468.47;5047439;28;19943;-74
2024/02/03 10:54:02;;;;;;;;;;;;;;;-144.99;100.00;52503.13;5055028;28;19971;-77
2024/02/03 10:56:32;;;;;;;;;;;;;;;-144.99;100.00;52513.31;5058589;28;19929;-76
2024/02/03 10:58:58;;;;;;;;;;;;;;;-144.99;100.00;52515.34;5054786;28;20290;-75
2024/02/03 11:01:33;;;;;;;;;;;;;;;-144.99;100.00;52521.47;5051527;28;19928;-76
2024/02/03 11:04:01;;;;;;;;;;;;;;;-144.99;100.00;52499.06;5055335;28;19968;-76
2024/02/03 11:06:28;;;;;;;;;;;;;;;-144.99;100.00;52550.00;5051698;28;20743;-76
2024/02/03 11:09:08;;;;;;;;;;;;;;;-144.99;100.00;52513.31;5055153;28;20344;-76
2024/02/03 11:11:38;;;;;;;;;;;;;;;-144.99;100.00;52521.47;5053277;28;20413;-76
2024/02/03 11:14:06;;;;;;;;;;;;;;;-144.99;100.00;52509.25;5052565;28;19925;-76
2024/02/03 11:16:36;;;;;;;;;;;;;;;-144.99;100.00;52515.34;5051670;28;19932;-75
2024/02/03 11:19:02;;;;;;;;;;;;;;;-144.99;100.00;52492.94;5055296;28;20023;-75
2024/02/03 11:21:29;;;;;;;;;;;;;;;-144.99;100.00;52476.63;5053657;28;19936;-75
2024/02/03 11:23:55;;;;;;;;;;;;;;;-144.99;100.00;52482.75;5058931;28;19978;-76
2024/02/03 11:26:22;;;;;;;;;;;;;;;-144.99;100.00;52492.94;5052738;28;19948;-73
2024/02/03 11:28:50;;;;;;;;;;;;;;;-144.99;100.00;52497.00;5051143;28;19995;-76
2024/02/03 11:31:17;;;;;;;;;;;;;;;-144.99;100.00;52488.84;5052619;28;19924;-75
2024/02/03 11:33:44;;;;;;;;;;;;;;;-144.99;100.00;52478.66;5055881;28;19936;-75
2024/02/03 11:36:11;;;;;;;;;;;;;;;-144.99;100.00;52499.06;5054187;28;19986;-75
2024/02/03 11:38:44;;;;;;;;;;;;;;;-144.99;100.00;52497.00;5061167;28;19975;-76
2024/02/03 11:41:10;;;;;;;;;;;;;;;-144.99;100.00;52497.00;5057416;28;19932;-76
2024/02/03 11:43:37;;;;;;;;;;;;;;;-144.99;100.00;52501.09;5055622;28;19932;-77
2024/02/03 11:46:05;;;;;;;;;;;;;;;-144.99;100.00;52497.00;5055552;28;20288;-76
2024/02/03 11:48:32;;;;;;;;;;;;;;;-144.99;100.00;52488.84;5051785;28;20364;-76
2024/02/03 11:50:58;;;;;;;;;;;;;;;-144.99;100.00;52456.25;5047013;28;20319;-75
2024/02/03 11:53:26;;;;;;;;;;;;;;;-144.99;100.00;52517.41;5052934;28;20020;-78
2024/02/03 11:55:54;;;;;;;;;;;;;;;-144.99;100.00;52517.41;5052212;28;19935;-76
2024/02/03 11:58:21;;;;;;;;;;;;;;;-144.99;100.00;52509.25;5049561;28;19983;-76
2024/02/03 12:00:48;;;;;;;;;;;;;;;-144.99;100.00;52513.31;5045122;28;20415;-75
2024/02/03 12:03:16;;;;;;;;;;;;;;;-144.99;100.00;52525.56;5050553;28;20000;-75
2024/02/03 12:05:43;;;;;;;;;;;;;;;-144.99;100.00;52472.56;5049996;28;20198;-76
2024/02/03 12:08:10;;;;;;;;;;;;;;;-144.99;100.00;52484.78;5051246;28;19925;-76
2024/02/03 12:10:36;;;;;;;;;;;;;;;-144.99;100.00;52521.47;5050853;28;20023;-76
2024/02/03 12:13:03;;;;;;;;;;;;;;;-144.99;100.00;52501.09;5051925;28;20221;-76
2024/02/03 12:15:30;;;;;;;;;;;;;;;-144.99;100.00;52480.72;5051505;28;19929;-76
2024/02/03 12:17:58;;;;;;;;;;;;;;;-144.99;100.00;52509.25;5051305;28;19929;-76